Fort Wayne, IN (46802)

3:47 PM EST on January 21, 2018 (GMT -0500)
Oakdale | | Change Station
Active Advisory: Dense Fog Advisory

Elev 794 ft 41.05 °N, 85.14 °W | Updated 6 seconds ago

Fog
Fog
45.2 °F
Feels Like 45 °F
N
0.0
Wind Variable Wind from South

Today
High -- | Low -- °F
--% Chance of Precip.
Yesterday
High -- | Low -- °F
Precip. -- in
Pressure 29.99 in
Visibility 0.2 miles
Clouds
Windchill 45 °F
Dew Point 44 °F
Humidity 96%
Rainfall 0.00 in
Snow Depth Not available.
8:00 AM 5:44 PM
Waxing Crescent, 20% visible
METAR KFWA 211954Z 21004KT 1/4SM -DZ FG VV003 07/07 A2997 RMK AO2 DZB02 SLP154 P0000 T00720072
Pressure 29.99 in
Visibility 0.2 miles
Clouds
Windchill 45 °F
Dew Point 44 °F
Humidity 96%
Rainfall 0.00 in
Snow Depth Not available.
8:00 AM 5:44 PM
Waxing Crescent, 20% visible
METAR KFWA 211954Z 21004KT 1/4SM -DZ FG VV003 07/07 A2997 RMK AO2 DZB02 SLP154 P0000 T00720072

Get Your Daily Forecast Email!

Thanks for signing up!

Be on the lookout for a verification email in your inbox.

You'll start receiving severe weather alerts in your inbox..

×

10-Day Weather Forecast

Almanac

Astronomy

Jan. 21, 2018 Rise Set
Actual Time
Civil Twilight
Nautical Twilight
Astronomical Twilight
Moon
Length of Visible Light
Length of Day
Tomorrow will be .
, % of the Moon is Illuminated

Today's Extremes

State Highs State Lows

Community

WunderPhotos

Category 6

Welcome to Category 6. This is the collective home for Weather Underground's featured writeups by Dr. Jeff Masters (right), Bob Henson (left), Chris Burt, and other regular contributors.

Nearby

Air Quality

  Air Quality AQ Index Pollutant
Not available.

Snow Depth

Station Depth Elevation

Earthquake Activity

City Distance Mag. Time & Date
Minimum magnitude displayed is 2.5.

Coastal Water Temperatures

Place Temperature

Stations

Nearby Weather Stations

Station Location Temp. Windchill Dew Point Humidity Wind Precip. Elev Updated Type
                   

Watches & Warnings

Dense Fog Advisory
Issued: 2:36 PM CST Jan. 21, 2018 – National Weather Service

... Dense fog advisory remains in effect until 11 PM EST /10 PM
CST/ this evening...

* timing... through this evening.

* Visibility... around one quarter of a mile or less.

* Impacts... the dense fog combined with wet Road surfaces and
   dark conditions after sunset will make travel hazardous.

Precautionary/preparedness actions...

A dense fog advisory means visibilities will frequently be
reduced to a quarter of one quarter mile or less. If you are
driving... slow down and allow extra time to reach your
destination.